createdAt,value
2019-04-28T03:03:21.090Z,2.17
2019-04-28T03:05:51.269Z,2.30
2019-04-28T03:08:21.583Z,2.60
2019-04-28T03:10:51.060Z,2.55
2019-04-28T03:13:21.064Z,2.60
2019-04-28T03:15:51.525Z,2.50
2019-04-28T03:18:21.506Z,2.40
2019-04-28T03:20:51.738Z,2.55
2019-04-28T03:23:21.257Z,2.58
2019-04-28T03:25:58.067Z,2.87
2019-04-28T03:28:44.967Z,2.58
2019-04-28T03:32:01.331Z,2.87
2019-04-28T03:34:05.108Z,2.45
2019-04-28T03:36:34.396Z,3.10
2019-04-28T03:39:06.298Z,2.60
2019-04-28T03:41:37.175Z,2.60
2019-04-28T03:44:06.444Z,3.00
2019-04-28T03:46:46.235Z,2.77
2019-04-28T03:49:17.156Z,2.30
2019-04-28T03:51:46.656Z,2.50
2019-04-28T03:54:15.899Z,2.77
2019-04-28T03:56:45.167Z,2.60
2019-04-28T03:59:14.438Z,2.58
2019-04-28T04:01:55.464Z,2.30
2019-04-28T04:04:14.889Z,2.47
2019-04-28T04:06:44.147Z,2.50
2019-04-28T04:09:13.405Z,2.92
2019-04-28T04:11:44.307Z,3.52
2019-04-28T04:14:18.128Z,2.35
2019-04-28T04:16:50.295Z,2.50
2019-04-28T04:19:20.440Z,1.95
2019-04-28T04:21:50.388Z,2.47
2019-04-28T04:24:20.727Z,2.12
2019-04-28T04:26:50.572Z,2.50
2019-04-28T04:29:21.721Z,2.58
2019-04-28T04:31:52.109Z,2.35
2019-04-28T04:34:21.352Z,2.70
2019-04-28T04:36:50.977Z,2.85
2019-04-28T04:39:20.725Z,2.35
2019-04-28T04:41:50.523Z,3.17
2019-04-28T04:44:21.037Z,2.72
2019-04-28T04:46:50.940Z,3.15
2019-04-28T04:49:21.541Z,2.72
2019-04-28T04:51:51.345Z,2.95
2019-04-28T04:54:20.627Z,2.75
2019-04-28T04:56:50.174Z,3.35
2019-04-28T04:59:20.306Z,2.90
2019-04-28T05:02:02.047Z,3.45
2019-04-28T05:04:35.734Z,3.65
2019-04-28T05:07:04.998Z,3.70
2019-04-28T05:09:34.490Z,2.80
2019-04-28T05:12:03.822Z,3.37
2019-04-28T05:14:33.075Z,3.27
2019-04-28T05:17:02.360Z,3.22
2019-04-28T05:19:31.839Z,3.52
2019-04-28T05:22:01.162Z,3.30
2019-04-28T05:24:40.126Z,3.55
2019-04-28T05:27:09.907Z,3.00
2019-04-28T05:29:39.846Z,3.30
2019-04-28T05:32:10.783Z,3.08
2019-04-28T05:34:46.470Z,3.83
2019-04-28T05:37:11.423Z,3.52
2019-04-28T05:39:40.710Z,3.87
2019-04-28T05:42:11.331Z,4.08
2019-04-28T05:44:40.970Z,4.03
2019-04-28T05:47:10.215Z,4.00
2019-04-28T05:49:46.893Z,3.67
2019-04-28T05:52:32.899Z,3.72
2019-04-28T05:55:11.355Z,3.77
2019-04-28T05:57:53.053Z,3.77
2019-04-28T06:00:24.063Z,4.17
2019-04-28T06:02:56.842Z,4.62
2019-04-28T06:05:26.163Z,4.95
2019-04-28T06:07:57.274Z,4.15
2019-04-28T06:10:26.539Z,4.40
2019-04-28T06:12:55.800Z,4.80
2019-04-28T06:15:25.066Z,5.05
2019-04-28T06:17:54.339Z,4.78
2019-04-28T06:20:23.590Z,5.08
2019-04-28T06:22:52.863Z,4.78
2019-04-28T06:25:22.114Z,4.60
2019-04-28T06:27:51.378Z,5.00
2019-04-28T06:30:20.791Z,4.67
2019-04-28T06:32:50.051Z,5.80
2019-04-28T06:35:19.307Z,4.70
2019-04-28T06:37:48.592Z,5.50
2019-04-28T06:40:17.843Z,5.40
2019-04-28T06:42:47.102Z,5.70
2019-04-28T06:45:17.581Z,4.92
2019-04-28T06:47:46.839Z,5.12
2019-04-28T06:50:16.167Z,5.15
2019-04-28T06:52:45.426Z,6.10
2019-04-28T06:55:14.775Z,5.40
2019-04-28T06:57:44.034Z,5.00
2019-04-28T07:00:13.371Z,4.47
2019-04-28T07:02:42.642Z,4.83
2019-04-28T07:05:12.203Z,4.78
2019-04-28T07:07:41.687Z,4.47
2019-04-28T07:10:11.138Z,5.25
2019-04-28T07:12:40.426Z,6.75
2019-04-28T07:15:10.060Z,4.90
2019-04-28T07:17:39.491Z,5.60
2019-04-28T07:20:26.435Z,4.70
2019-04-28T07:22:55.693Z,4.67
2019-04-28T07:25:24.951Z,5.10
2019-04-28T07:27:54.218Z,5.60
2019-04-28T07:30:23.848Z,5.55
2019-04-28T07:32:53.138Z,6.17
2019-04-28T07:35:22.366Z,5.47
2019-04-28T07:37:51.635Z,5.03
2019-04-28T07:40:20.903Z,4.45
2019-04-28T07:42:50.167Z,4.40
2019-04-28T07:45:19.423Z,4.78
2019-04-28T07:47:48.682Z,5.42
2019-04-28T07:50:17.940Z,4.87
2019-04-28T07:52:54.875Z,4.70
2019-04-28T07:55:24.131Z,4.80
2019-04-28T07:57:53.398Z,4.12
2019-04-28T08:00:24.299Z,4.80
2019-04-28T08:02:53.563Z,5.40
2019-04-28T08:05:22.838Z,4.92
2019-04-28T08:07:52.110Z,4.15
2019-04-28T08:10:21.606Z,4.30
2019-04-28T08:12:50.873Z,4.12
2019-04-28T08:15:20.139Z,4.28
2019-04-28T08:17:49.399Z,3.95
2019-04-28T08:20:18.671Z,3.92
2019-04-28T08:22:48.003Z,4.30
2019-04-28T08:25:17.511Z,3.50
2019-04-28T08:27:46.779Z,3.75
2019-04-28T08:30:16.136Z,3.67
2019-04-28T08:32:47.023Z,3.77
2019-04-28T08:35:16.286Z,5.08
2019-04-28T08:37:45.562Z,4.20
2019-04-28T08:40:14.896Z,4.33
2019-04-28T08:42:44.166Z,4.00
2019-04-28T08:45:13.767Z,4.80
2019-04-28T08:47:43.046Z,4.22
2019-04-28T08:50:12.755Z,3.60
2019-04-28T08:52:42.035Z,4.00
2019-04-28T08:55:11.287Z,2.90
2019-04-28T08:57:40.551Z,3.12
2019-04-28T09:00:11.030Z,3.12
2019-04-28T09:02:40.286Z,2.77
2019-04-28T09:05:09.631Z,3.30
2019-04-28T09:07:38.923Z,3.45
2019-04-28T09:10:08.631Z,3.67
2019-04-28T09:12:37.894Z,2.98
2019-04-28T09:15:07.406Z,3.05
2019-04-28T09:17:36.674Z,3.58
2019-04-28T09:20:07.358Z,2.72
2019-04-28T09:22:36.614Z,2.58
2019-04-28T09:25:07.626Z,3.27
2019-04-28T09:27:36.891Z,3.02
2019-04-28T09:30:09.207Z,2.67
2019-04-28T09:32:38.484Z,3.20
2019-04-28T09:35:08.079Z,3.00
2019-04-28T09:37:37.351Z,2.87
2019-04-28T09:40:08.421Z,2.62
2019-04-28T09:42:39.624Z,2.65
2019-04-28T09:45:25.546Z,2.72
2019-04-28T09:47:54.815Z,3.05
2019-04-28T09:50:24.079Z,2.87
2019-04-28T09:52:53.612Z,3.10
2019-04-28T09:55:22.851Z,3.20
2019-04-28T09:57:54.749Z,2.85
2019-04-28T10:00:23.303Z,2.83
2019-04-28T10:02:52.562Z,2.95
2019-04-28T10:05:21.830Z,3.02
2019-04-28T10:07:51.094Z,2.87
2019-04-28T10:10:20.447Z,3.10
2019-04-28T10:12:49.707Z,2.80
2019-04-28T10:15:19.043Z,2.80
2019-04-28T10:17:48.315Z,2.50
2019-04-28T10:20:18.022Z,2.90
2019-04-28T10:22:47.354Z,2.95
2019-04-28T10:25:16.756Z,3.45
2019-04-28T10:27:46.186Z,2.17
2019-04-28T10:30:15.895Z,2.60
2019-04-28T10:32:45.151Z,2.80
2019-04-28T10:35:15.952Z,2.95
2019-04-28T10:37:45.617Z,2.40
2019-04-28T10:40:28.507Z,2.58
2019-04-28T10:42:57.778Z,2.25
2019-04-28T10:45:28.686Z,2.15
2019-04-28T10:47:58.019Z,2.20
2019-04-28T10:50:27.506Z,2.65
2019-04-28T10:52:57.007Z,2.35
2019-04-28T10:55:26.271Z,2.12
2019-04-28T10:57:55.537Z,2.10
2019-04-28T11:00:26.654Z,2.20
2019-04-28T11:02:55.919Z,2.30
2019-04-28T11:05:26.819Z,2.50
2019-04-28T11:07:56.091Z,2.10
2019-04-28T11:10:25.347Z,2.17
2019-04-28T11:12:54.714Z,2.60
2019-04-28T11:15:25.615Z,2.55
2019-04-28T11:17:55.108Z,2.25
2019-04-28T11:20:25.326Z,2.10
2019-04-28T11:22:54.620Z,2.50
2019-04-28T11:25:24.102Z,2.37
2019-04-28T11:27:55.472Z,2.70
2019-04-28T11:30:25.858Z,2.98
2019-04-28T11:32:56.758Z,2.77
2019-04-28T11:35:33.410Z,3.50
2019-04-28T11:38:02.679Z,2.98
2019-04-28T11:40:31.939Z,2.87
2019-04-28T11:43:01.213Z,3.60
2019-04-28T11:45:30.787Z,3.25
2019-04-28T11:48:00.191Z,3.02
2019-04-28T11:50:29.443Z,3.60
2019-04-28T11:52:58.739Z,3.00
2019-04-28T11:55:28.199Z,3.35
2019-04-28T11:57:57.477Z,3.92
2019-04-28T12:00:31.048Z,3.75
2019-04-28T12:03:00.323Z,3.95
2019-04-28T12:05:34.554Z,3.58
2019-04-28T12:08:02.263Z,4.10
2019-04-28T12:10:49.436Z,4.25
2019-04-28T12:13:29.303Z,3.50
2019-04-28T12:16:11.979Z,4.20
2019-04-28T12:18:42.892Z,3.60
2019-04-28T12:21:12.206Z,3.67
2019-04-28T12:23:41.719Z,3.45
2019-04-28T12:26:11.650Z,3.75
2019-04-28T12:28:40.922Z,3.70
2019-04-28T12:31:10.183Z,3.65
2019-04-28T12:33:39.447Z,3.90
2019-04-28T12:36:08.890Z,3.70
2019-04-28T12:38:38.229Z,3.72
2019-04-28T12:41:07.491Z,4.17
2019-04-28T12:43:36.770Z,3.87
2019-04-28T12:46:06.026Z,4.00
2019-04-28T12:48:35.527Z,4.65
2019-04-28T12:51:04.799Z,4.97
2019-04-28T12:53:34.122Z,3.95
2019-04-28T12:56:03.414Z,3.62
2019-04-28T12:58:32.731Z,3.60
2019-04-28T13:01:06.770Z,3.70
2019-04-28T13:03:37.670Z,3.52
2019-04-28T13:06:08.640Z,3.90
2019-04-28T13:08:38.879Z,3.40
2019-04-28T13:11:08.281Z,3.95
2019-04-28T13:13:37.623Z,3.90
2019-04-28T13:16:06.891Z,3.20
2019-04-28T13:18:36.154Z,3.35
2019-04-28T13:21:05.642Z,3.80
2019-04-28T13:23:34.936Z,3.52
2019-04-28T13:26:04.175Z,3.35
2019-04-28T13:28:33.460Z,3.90
2019-04-28T13:31:02.718Z,3.83
2019-04-28T13:33:32.191Z,3.42
2019-04-28T13:36:13.710Z,3.70
2019-04-28T13:38:32.659Z,3.95
2019-04-28T13:41:01.952Z,4.00
2019-04-28T13:43:31.216Z,4.05
2019-04-28T13:46:00.492Z,3.37
2019-04-28T13:48:29.753Z,3.35
2019-04-28T13:50:59.015Z,3.95
2019-04-28T13:53:28.299Z,3.37
2019-04-28T13:55:59.309Z,3.58
2019-04-28T13:58:30.203Z,3.30
2019-04-28T14:01:01.331Z,3.70
2019-04-28T14:03:44.011Z,3.47
2019-04-28T14:06:28.212Z,2.75
2019-04-28T14:08:48.834Z,2.30
2019-04-28T14:11:18.165Z,2.45
2019-04-28T14:13:47.518Z,2.00
2019-04-28T14:16:16.787Z,2.98
2019-04-28T14:18:46.063Z,2.40
2019-04-28T14:21:15.381Z,2.55
2019-04-28T14:23:44.649Z,2.60
2019-04-28T14:26:14.127Z,3.20
2019-04-28T14:28:43.515Z,2.33
2019-04-28T14:31:13.030Z,2.35
2019-04-28T14:33:42.274Z,2.75
2019-04-28T14:36:11.539Z,2.98
2019-04-28T14:38:43.056Z,2.60
2019-04-28T14:41:11.811Z,2.58
2019-04-28T14:43:41.121Z,2.58
2019-04-28T14:46:10.421Z,2.75
2019-04-28T14:48:39.718Z,3.33
2019-04-28T14:51:09.796Z,2.40
2019-04-28T14:53:39.961Z,2.20
2019-04-28T14:56:09.226Z,2.47
2019-04-28T14:58:38.783Z,2.40
2019-04-28T15:01:09.717Z,2.30
2019-04-28T15:03:43.606Z,2.42
2019-04-28T15:06:17.466Z,2.67
2019-04-28T15:08:48.371Z,2.85
2019-04-28T15:11:25.289Z,2.70
2019-04-28T15:13:55.506Z,2.52
2019-04-28T15:16:24.915Z,2.70
2019-04-28T15:18:54.183Z,2.60
2019-04-28T15:21:23.452Z,2.95
2019-04-28T15:23:52.718Z,2.50
2019-04-28T15:26:21.980Z,2.22
2019-04-28T15:28:51.251Z,2.52
2019-04-28T15:31:20.571Z,2.40
2019-04-28T15:33:51.036Z,2.60
2019-04-28T15:36:20.304Z,2.87
2019-04-28T15:38:49.570Z,2.80
2019-04-28T15:41:21.941Z,3.00
2019-04-28T15:43:50.251Z,2.90
2019-04-28T15:46:19.517Z,2.70
2019-04-28T15:48:48.789Z,2.90
2019-04-28T15:51:19.014Z,2.77
2019-04-28T15:53:48.378Z,2.92
2019-04-28T15:56:21.935Z,2.72
2019-04-28T15:58:51.436Z,3.05
2019-04-28T16:01:20.702Z,2.75
2019-04-28T16:03:49.972Z,2.90
2019-04-28T16:06:19.466Z,3.08
2019-04-28T16:08:48.718Z,2.45
2019-04-28T16:11:17.990Z,2.42
2019-04-28T16:13:47.477Z,2.60
2019-04-28T16:16:16.746Z,2.65
2019-04-28T16:18:46.012Z,2.25
2019-04-28T16:21:15.392Z,2.17
2019-04-28T16:23:44.659Z,2.70
2019-04-28T16:26:13.934Z,2.75
2019-04-28T16:28:43.194Z,2.65
2019-04-28T16:31:12.698Z,2.37
2019-04-28T16:33:41.965Z,2.60
2019-04-28T16:36:11.229Z,2.65
2019-04-28T16:38:40.490Z,2.90
2019-04-28T16:41:13.007Z,2.85
2019-04-28T16:43:44.251Z,2.58
2019-04-28T16:46:13.585Z,2.10
2019-04-28T16:48:42.851Z,2.40
2019-04-28T16:51:14.616Z,2.60
2019-04-28T16:53:44.619Z,3.60
2019-04-28T16:56:21.515Z,2.80
2019-04-28T16:58:52.669Z,2.42
2019-04-28T17:01:32.279Z,2.50
2019-04-28T17:04:01.549Z,2.00
2019-04-28T17:06:31.102Z,2.20
2019-04-28T17:09:00.377Z,2.35
2019-04-28T17:11:31.255Z,2.37
2019-04-28T17:14:00.523Z,2.15
2019-04-28T17:16:29.803Z,2.30
2019-04-28T17:18:59.295Z,2.05
2019-04-28T17:21:28.562Z,1.92
2019-04-28T17:23:57.831Z,2.10
2019-04-28T17:26:27.163Z,2.00
2019-04-28T17:28:56.438Z,1.95
2019-04-28T17:31:25.704Z,2.27
2019-04-28T17:33:54.966Z,1.72
2019-04-28T17:36:24.302Z,2.47
2019-04-28T17:38:53.562Z,2.45
2019-04-28T17:41:23.095Z,2.30
2019-04-28T17:43:52.447Z,2.35
2019-04-28T17:46:21.784Z,2.08
2019-04-28T17:48:55.617Z,2.33
2019-04-28T17:51:25.112Z,2.10
2019-04-28T17:53:54.442Z,2.15
2019-04-28T17:56:23.740Z,2.70
2019-04-28T17:58:53.092Z,2.37
2019-04-28T18:01:40.059Z,2.20
2019-04-28T18:04:26.922Z,2.15
2019-04-28T18:07:00.275Z,2.72
2019-04-28T18:09:29.779Z,2.20
2019-04-28T18:11:59.602Z,2.45
2019-04-28T18:14:28.886Z,1.85
2019-04-28T18:17:15.997Z,2.15
2019-04-28T18:19:45.263Z,2.58
2019-04-28T18:22:14.518Z,1.85
2019-04-28T18:24:43.791Z,2.20
2019-04-28T18:27:13.327Z,2.30
2019-04-28T18:29:42.610Z,2.20
2019-04-28T18:32:25.290Z,2.30
2019-04-28T18:35:02.468Z,2.20
2019-04-28T18:37:49.667Z,2.17
2019-04-28T18:40:29.483Z,2.25
2019-04-28T18:43:00.450Z,2.58
2019-04-28T18:45:29.721Z,2.60
2019-04-28T18:48:00.060Z,2.52
2019-04-28T18:50:29.328Z,3.40
2019-04-28T18:52:58.587Z,3.40
2019-04-28T18:55:28.088Z,3.10
2019-04-28T18:57:57.425Z,3.05
2019-04-28T19:00:28.347Z,3.05
2019-04-28T19:02:57.684Z,3.30
2019-04-28T19:05:28.589Z,3.80
2019-04-28T19:08:05.460Z,4.53
2019-04-28T19:10:40.110Z,4.25
2019-04-28T19:13:16.835Z,3.80
2019-04-28T19:15:50.618Z,4.95
2019-04-28T19:18:30.290Z,4.75
2019-04-28T19:20:59.544Z,4.83
2019-04-28T19:23:28.835Z,3.98
2019-04-28T19:25:58.103Z,3.92
2019-04-28T19:28:27.363Z,3.52
2019-04-28T19:30:56.636Z,3.47
2019-04-28T19:33:26.202Z,3.83
2019-04-28T19:35:55.462Z,3.50
2019-04-28T19:38:24.807Z,4.08
2019-04-28T19:40:54.074Z,5.28
2019-04-28T19:43:23.672Z,4.58
2019-04-28T19:45:54.802Z,3.92
2019-04-28T19:48:24.075Z,4.15
2019-04-28T19:50:53.335Z,4.60
2019-04-28T19:53:22.591Z,4.90
2019-04-28T19:55:56.315Z,4.90
2019-04-28T19:58:27.286Z,5.00
2019-04-28T20:00:58.264Z,4.28
2019-04-28T20:03:27.520Z,4.70
2019-04-28T20:05:57.016Z,4.60
2019-04-28T20:08:26.373Z,4.25
2019-04-28T20:10:55.639Z,3.90
2019-04-28T20:13:24.916Z,4.10
2019-04-28T20:15:54.480Z,3.80
2019-04-28T20:18:23.914Z,3.90
2019-04-28T20:20:53.251Z,4.03
2019-04-28T20:23:22.583Z,3.72
2019-04-28T20:25:51.946Z,3.27
2019-04-28T20:28:21.188Z,2.58
2019-04-28T20:30:50.445Z,3.08
2019-04-28T20:33:19.950Z,3.42
2019-04-28T20:36:05.419Z,2.95
2019-04-28T20:38:34.750Z,3.00
2019-04-28T20:41:05.789Z,2.98
2019-04-28T20:43:35.273Z,3.17
2019-04-28T20:46:04.529Z,3.15
2019-04-28T20:48:33.867Z,3.30
2019-04-28T20:51:03.130Z,2.65
2019-04-28T20:53:32.558Z,2.92
2019-04-28T20:56:02.048Z,2.90
2019-04-28T20:58:31.315Z,2.77
2019-04-28T21:01:00.647Z,2.98
2019-04-28T21:03:30.805Z,2.80
2019-04-28T21:06:00.287Z,2.50
2019-04-28T21:08:29.546Z,2.70
2019-04-28T21:10:58.802Z,2.83
2019-04-28T21:13:28.071Z,2.80
2019-04-28T21:15:57.334Z,2.80
2019-04-28T21:18:26.591Z,2.90
2019-04-28T21:20:55.849Z,3.02
2019-04-28T21:23:25.104Z,3.52
2019-04-28T21:25:54.369Z,3.27
2019-04-28T21:28:23.622Z,3.60
2019-04-28T21:30:52.890Z,3.30
2019-04-28T21:33:22.147Z,3.05
2019-04-28T21:35:51.414Z,2.95
2019-04-28T21:38:20.672Z,3.12
2019-04-28T21:40:49.946Z,3.62
2019-04-28T21:43:20.847Z,3.50
2019-04-28T21:45:51.743Z,3.55
2019-04-28T21:48:34.399Z,3.80
2019-04-28T21:51:03.895Z,3.77
2019-04-28T21:53:33.147Z,3.45
2019-04-28T21:56:02.403Z,3.47
2019-04-28T21:58:33.336Z,3.40
2019-04-28T22:01:03.055Z,3.05
2019-04-28T22:03:34.181Z,3.27
2019-04-28T22:06:03.491Z,3.62
2019-04-28T22:08:32.756Z,3.80
2019-04-28T22:11:02.026Z,4.00
2019-04-28T22:13:31.427Z,3.52
2019-04-28T22:16:00.686Z,3.87
2019-04-28T22:18:29.950Z,4.08
2019-04-28T22:20:59.206Z,3.50
2019-04-28T22:23:38.572Z,3.40
2019-04-28T22:26:09.467Z,3.55
2019-04-28T22:28:38.791Z,3.92
2019-04-28T22:31:08.367Z,4.30
2019-04-28T22:33:37.636Z,4.53
2019-04-28T22:36:06.888Z,4.50
2019-04-28T22:38:36.150Z,4.75
2019-04-28T22:41:06.393Z,5.40
2019-04-28T22:43:35.642Z,4.53
2019-04-28T22:46:04.905Z,4.30
2019-04-28T22:48:34.160Z,4.37
2019-04-28T22:51:03.422Z,4.17
2019-04-28T22:53:34.331Z,4.87
2019-04-28T22:56:23.283Z,4.28
2019-04-28T22:59:06.127Z,4.15
2019-04-28T23:01:37.101Z,4.55
2019-04-28T23:04:08.162Z,3.90
2019-04-28T23:06:38.628Z,3.75
2019-04-28T23:09:11.458Z,3.85
2019-04-28T23:11:41.255Z,3.47
2019-04-28T23:14:10.517Z,3.90
2019-04-28T23:16:39.775Z,3.87
2019-04-28T23:19:10.753Z,3.20
2019-04-28T23:21:44.194Z,2.90
2019-04-28T23:24:13.686Z,3.83
2019-04-28T23:26:42.947Z,3.20
2019-04-28T23:29:12.270Z,3.70
2019-04-28T23:31:41.539Z,3.90
2019-04-28T23:34:10.803Z,4.25
2019-04-28T23:36:40.288Z,4.20
2019-04-28T23:39:09.621Z,3.55
2019-04-28T23:41:40.511Z,4.42
2019-04-28T23:44:09.770Z,3.95
2019-04-28T23:46:56.678Z,4.47
2019-04-28T23:49:28.259Z,4.40
2019-04-28T23:52:15.544Z,4.12
2019-04-28T23:54:58.235Z,4.40
2019-04-28T23:57:27.487Z,3.87
2019-04-28T23:59:56.978Z,4.42
